createdAt,value
2024-03-02T00:03:04.666Z,9.33
2024-03-02T00:06:31.551Z,9.33
2024-03-02T00:09:58.731Z,9.34
2024-03-02T00:13:25.846Z,9.31
2024-03-02T00:16:54.713Z,9.33
2024-03-02T00:20:24.691Z,9.29
2024-03-02T00:23:53.845Z,9.24
2024-03-02T00:27:22.239Z,9.20
2024-03-02T00:31:00.477Z,9.17
2024-03-02T00:34:29.033Z,9.13
2024-03-02T00:37:55.264Z,9.06
2024-03-02T00:41:26.657Z,8.98
2024-03-02T00:44:53.283Z,8.92
2024-03-02T00:48:20.856Z,8.90
2024-03-02T00:51:51.353Z,8.88
2024-03-02T00:55:18.025Z,8.85
2024-03-02T00:58:44.157Z,8.82
2024-03-02T01:02:13.151Z,8.80
2024-03-02T01:05:39.590Z,8.77
2024-03-02T01:09:06.344Z,8.74
2024-03-02T01:12:33.397Z,8.72
2024-03-02T01:15:59.982Z,8.69
2024-03-02T01:19:28.283Z,8.71
2024-03-02T01:22:54.881Z,8.77
2024-03-02T01:26:22.027Z,8.80
2024-03-02T01:29:48.159Z,8.83
2024-03-02T01:33:14.071Z,8.84
2024-03-02T01:36:40.784Z,8.82
2024-03-02T01:40:10.521Z,8.83
2024-03-02T01:43:40.376Z,8.78
2024-03-02T01:47:08.486Z,8.75
2024-03-02T01:50:35.522Z,8.73
2024-03-02T01:54:03.985Z,8.71
2024-03-02T01:57:30.750Z,8.66
2024-03-02T02:00:57.225Z,8.61
2024-03-02T02:04:29.160Z,8.57
2024-03-02T02:07:54.974Z,8.50
2024-03-02T02:11:21.344Z,8.44
2024-03-02T02:14:52.569Z,8.41
2024-03-02T02:18:18.506Z,8.38
2024-03-02T02:21:47.364Z,8.36
2024-03-02T02:25:13.918Z,8.34
2024-03-02T02:28:40.221Z,8.32
2024-03-02T02:32:06.842Z,8.30
2024-03-02T02:35:32.619Z,8.28
2024-03-02T02:38:59.820Z,8.28
2024-03-02T02:42:25.932Z,8.28
2024-03-02T02:45:52.550Z,8.27
2024-03-02T02:49:19.107Z,8.25
2024-03-02T02:52:46.194Z,8.25
2024-03-02T02:56:12.218Z,8.23
2024-03-02T02:59:39.490Z,8.21
2024-03-02T03:03:05.982Z,8.15
2024-03-02T03:06:31.871Z,8.11
2024-03-02T03:09:58.413Z,8.07
2024-03-02T03:13:25.271Z,8.05
2024-03-02T03:16:52.161Z,8.00
2024-03-02T03:20:18.459Z,7.95
2024-03-02T03:23:44.327Z,7.90
2024-03-02T03:27:10.458Z,7.85
2024-03-02T03:30:36.522Z,7.81
2024-03-02T03:34:02.340Z,7.75
2024-03-02T03:37:34.700Z,7.71
2024-03-02T03:41:01.962Z,7.67
2024-03-02T03:44:29.210Z,7.66
2024-03-02T03:47:55.385Z,7.69
2024-03-02T03:51:21.202Z,7.72
2024-03-02T03:54:47.618Z,7.71
2024-03-02T03:58:21.339Z,7.75
2024-03-02T04:01:49.468Z,7.77
2024-03-02T04:05:16.147Z,7.79
2024-03-02T04:08:43.726Z,7.81
2024-03-02T04:12:10.565Z,7.83
2024-03-02T04:15:36.823Z,7.84
2024-03-02T04:19:03.330Z,7.86
2024-03-02T04:22:29.727Z,7.88
2024-03-02T04:25:55.717Z,7.94
2024-03-02T04:29:21.944Z,7.98
2024-03-02T04:32:49.162Z,8.03
2024-03-02T04:36:15.338Z,8.05
2024-03-02T04:39:41.599Z,8.08
2024-03-02T04:43:09.860Z,8.10
2024-03-02T04:46:37.115Z,8.12
2024-03-02T04:50:03.676Z,8.13
2024-03-02T04:53:29.800Z,8.12
2024-03-02T04:56:56.130Z,8.05
2024-03-02T05:00:22.286Z,8.01
2024-03-02T05:03:48.796Z,7.99
2024-03-02T05:07:15.320Z,7.97
2024-03-02T05:10:41.103Z,7.97
2024-03-02T05:14:07.481Z,8.00
2024-03-02T05:17:34.077Z,8.02
2024-03-02T05:21:00.903Z,8.02
2024-03-02T05:24:28.806Z,8.07
2024-03-02T05:27:55.382Z,8.11
2024-03-02T05:31:24.525Z,8.15
2024-03-02T05:34:52.189Z,8.23
2024-03-02T05:38:18.634Z,8.27
2024-03-02T05:41:44.770Z,8.28
2024-03-02T05:45:12.309Z,8.30
2024-03-02T05:48:38.400Z,8.35
2024-03-02T05:52:04.650Z,8.36
2024-03-02T05:55:31.094Z,8.39
2024-03-02T05:59:10.050Z,8.37
2024-03-02T06:02:40.005Z,8.34
2024-03-02T06:06:07.833Z,8.28
2024-03-02T06:09:33.797Z,8.21
2024-03-02T06:13:00.368Z,8.14
2024-03-02T06:16:26.598Z,8.11
2024-03-02T06:19:52.938Z,8.10
2024-03-02T06:23:20.269Z,8.12
2024-03-02T06:26:46.304Z,8.15
2024-03-02T06:30:14.762Z,8.17
2024-03-02T06:33:41.652Z,8.19
2024-03-02T06:37:08.554Z,8.20
2024-03-02T06:40:35.557Z,8.25
2024-03-02T06:44:01.826Z,8.29
2024-03-02T06:47:28.021Z,8.34
2024-03-02T06:50:54.564Z,8.41
2024-03-02T06:54:20.404Z,8.50
2024-03-02T06:57:46.604Z,8.56
2024-03-02T07:01:12.857Z,8.60
2024-03-02T07:04:39.405Z,8.66
2024-03-02T07:08:06.642Z,8.72
2024-03-02T07:11:33.712Z,8.70
2024-03-02T07:15:20.052Z,8.70
2024-03-02T07:18:53.560Z,8.66
2024-03-02T07:22:20.187Z,8.66
2024-03-02T07:29:15.418Z,8.68
2024-03-02T07:32:43.370Z,8.71
2024-03-02T07:36:12.124Z,8.76
2024-03-02T07:39:38.463Z,8.78
2024-03-02T07:43:06.999Z,8.77
2024-03-02T07:46:36.009Z,8.78
2024-03-02T07:50:02.857Z,8.85
2024-03-02T07:53:28.892Z,8.94
2024-03-02T07:56:55.121Z,9.00
2024-03-02T08:00:21.691Z,9.11
2024-03-02T08:03:49.448Z,9.25
2024-03-02T08:07:16.279Z,9.40
2024-03-02T08:10:42.834Z,9.52
2024-03-02T08:14:09.683Z,9.62
2024-03-02T08:17:38.224Z,9.69
2024-03-02T08:21:05.935Z,9.75
2024-03-02T08:24:34.773Z,9.84
2024-03-02T08:28:04.266Z,9.87
2024-03-02T08:31:30.566Z,9.84
2024-03-02T08:34:57.026Z,9.80
2024-03-02T08:38:23.353Z,9.81
2024-03-02T08:41:50.266Z,9.88
2024-03-02T08:45:18.789Z,9.96
2024-03-02T08:48:45.518Z,9.98
2024-03-02T08:52:11.688Z,10.06
2024-03-02T08:55:37.701Z,10.16
2024-03-02T08:59:03.960Z,10.25
2024-03-02T09:02:30.495Z,10.27
2024-03-02T09:05:56.600Z,10.31
2024-03-02T09:09:23.285Z,10.35
2024-03-02T09:12:49.271Z,10.36
2024-03-02T09:16:16.180Z,10.36
2024-03-02T09:19:42.390Z,10.43
2024-03-02T09:23:08.911Z,10.49
2024-03-02T09:26:35.212Z,10.56
2024-03-02T09:30:01.589Z,10.60
2024-03-02T09:33:28.947Z,10.60
2024-03-02T09:36:56.178Z,10.59
2024-03-02T09:40:26.937Z,10.64
2024-03-02T09:43:55.444Z,10.71
2024-03-02T09:47:21.598Z,10.75
2024-03-02T09:50:48.386Z,10.82
2024-03-02T09:54:21.935Z,10.93
2024-03-02T09:57:50.024Z,11.06
2024-03-02T10:01:16.527Z,11.17
2024-03-02T10:04:42.696Z,11.31
2024-03-02T10:08:09.493Z,11.39
2024-03-02T10:11:38.813Z,11.50
2024-03-02T10:15:11.298Z,11.65
2024-03-02T10:18:37.932Z,11.76
2024-03-02T10:22:05.308Z,11.86
2024-03-02T10:29:03.905Z,12.03
2024-03-02T10:32:31.638Z,12.16
2024-03-02T10:35:59.090Z,12.30
2024-03-02T10:39:26.803Z,12.45
2024-03-02T10:42:54.094Z,12.56
2024-03-02T10:46:21.295Z,12.64
2024-03-02T10:49:49.385Z,12.75
2024-03-02T10:53:15.619Z,12.83
2024-03-02T10:56:43.805Z,12.93
2024-03-02T11:00:16.155Z,13.03
2024-03-02T11:03:44.089Z,13.16
2024-03-02T11:07:12.182Z,13.29
2024-03-02T11:10:46.056Z,13.44
2024-03-02T11:14:16.307Z,13.56
2024-03-02T11:17:43.705Z,13.66
2024-03-02T11:21:10.948Z,13.70
2024-03-02T11:24:39.004Z,13.73
2024-03-02T11:28:07.192Z,13.76
2024-03-02T11:32:01.861Z,13.78
2024-03-02T11:35:30.093Z,13.82
2024-03-02T11:38:56.711Z,13.86
2024-03-02T11:42:23.560Z,13.92
2024-03-02T11:45:49.568Z,13.97
2024-03-02T11:49:17.962Z,13.98
2024-03-02T11:52:44.693Z,14.06
2024-03-02T11:56:13.064Z,14.14
2024-03-02T11:59:39.397Z,14.23
2024-03-02T12:03:08.627Z,14.30
2024-03-02T12:06:35.597Z,14.42
2024-03-02T12:10:05.178Z,14.54
2024-03-02T12:13:32.725Z,14.66
2024-03-02T12:17:00.055Z,14.79
2024-03-02T12:20:26.932Z,14.93
2024-03-02T12:23:53.080Z,15.06
2024-03-02T12:27:22.585Z,15.16
2024-03-02T12:30:51.348Z,15.14
2024-03-02T12:34:19.897Z,15.04
2024-03-02T12:37:50.181Z,15.05
2024-03-02T12:41:19.688Z,15.11
2024-03-02T12:44:47.944Z,15.21
2024-03-02T12:48:15.829Z,15.31
2024-03-02T12:51:43.212Z,15.43
2024-03-02T12:55:12.721Z,15.52
2024-03-02T12:58:43.983Z,15.57
2024-03-02T13:02:11.905Z,15.56
2024-03-02T13:05:38.001Z,15.54
2024-03-02T13:09:05.575Z,15.49
2024-03-02T13:12:32.815Z,15.44
2024-03-02T13:16:00.474Z,15.40
2024-03-02T13:19:26.733Z,15.36
2024-03-02T13:22:53.377Z,15.34
2024-03-02T13:26:22.380Z,15.20
2024-03-02T13:29:49.743Z,15.10
2024-03-02T13:33:16.508Z,15.04
2024-03-02T13:36:44.527Z,15.02
2024-03-02T13:40:15.151Z,14.95
2024-03-02T13:43:41.645Z,14.98
2024-03-02T13:47:09.304Z,14.97
2024-03-02T13:50:36.369Z,14.94
2024-03-02T13:54:04.471Z,14.99
2024-03-02T13:57:32.205Z,14.99
2024-03-02T14:00:58.965Z,14.95
2024-03-02T14:04:25.551Z,14.90
2024-03-02T14:07:51.665Z,14.88
2024-03-02T14:11:18.982Z,14.77
2024-03-02T14:14:47.591Z,14.68
2024-03-02T14:18:14.849Z,14.58
2024-03-02T14:21:41.820Z,14.41
2024-03-02T14:25:09.453Z,14.30
2024-03-02T14:32:10.220Z,13.92
2024-03-02T14:35:36.369Z,13.73
2024-03-02T14:39:03.331Z,13.56
2024-03-02T14:42:32.936Z,13.44
2024-03-02T14:46:00.633Z,13.35
2024-03-02T14:49:29.707Z,13.24
2024-03-02T14:52:58.571Z,13.18
2024-03-02T14:56:25.150Z,13.14
2024-03-02T14:59:52.004Z,13.08
2024-03-02T15:03:18.146Z,13.06
2024-03-02T15:06:46.826Z,12.98
2024-03-02T15:10:13.074Z,12.89
2024-03-02T15:13:39.095Z,12.80
2024-03-02T15:17:05.518Z,12.72
2024-03-02T15:20:31.743Z,12.63
2024-03-02T15:23:58.932Z,12.56
2024-03-02T15:27:26.555Z,12.51
2024-03-02T15:30:55.815Z,12.45
2024-03-02T15:34:23.562Z,12.38
2024-03-02T15:37:49.715Z,12.30
2024-03-02T15:41:16.248Z,12.23
2024-03-02T15:44:45.261Z,12.16
2024-03-02T15:48:11.787Z,12.08
2024-03-02T15:51:41.869Z,12.00
2024-03-02T15:55:09.721Z,11.93
2024-03-02T15:58:37.484Z,11.90
2024-03-02T16:02:05.069Z,11.90
2024-03-02T16:05:32.284Z,11.88
2024-03-02T16:09:01.057Z,11.86
2024-03-02T16:12:27.406Z,11.83
2024-03-02T16:15:53.825Z,11.79
2024-03-02T16:19:29.229Z,11.75
2024-03-02T16:23:03.150Z,11.70
2024-03-02T16:26:32.548Z,11.66
2024-03-02T16:30:00.205Z,11.59
2024-03-02T16:33:27.177Z,11.50
2024-03-02T16:36:55.293Z,11.42
2024-03-02T16:40:22.082Z,11.36
2024-03-02T16:43:48.910Z,11.28
2024-03-02T16:47:16.666Z,11.19
2024-03-02T16:50:42.541Z,11.15
2024-03-02T16:54:08.540Z,11.11
2024-03-02T16:57:37.372Z,11.08
2024-03-02T17:01:04.622Z,11.06
2024-03-02T17:04:31.361Z,11.07
2024-03-02T17:07:59.498Z,11.08
2024-03-02T17:11:26.384Z,11.09
2024-03-02T17:14:52.524Z,11.11
2024-03-02T17:18:19.699Z,11.13
2024-03-02T17:21:45.721Z,11.13
2024-03-02T17:25:13.670Z,11.12
2024-03-02T17:28:39.798Z,11.10
2024-03-02T17:32:06.479Z,11.01
2024-03-02T17:35:33.507Z,10.94
2024-03-02T17:39:00.169Z,10.87
2024-03-02T17:42:30.559Z,10.79
2024-03-02T17:45:59.629Z,10.69
2024-03-02T17:49:25.741Z,10.60
2024-03-02T17:52:52.099Z,10.54
2024-03-02T17:56:18.707Z,10.48
2024-03-02T17:59:45.462Z,10.42
2024-03-02T18:03:12.140Z,10.35
2024-03-02T18:06:38.311Z,10.33
2024-03-02T18:10:05.101Z,10.31
2024-03-02T18:13:34.359Z,10.32
2024-03-02T18:17:00.841Z,10.34
2024-03-02T18:20:27.581Z,10.34
2024-03-02T18:23:53.923Z,10.38
2024-03-02T18:27:22.996Z,10.38
2024-03-02T18:30:48.994Z,10.35
2024-03-02T18:34:15.487Z,10.34
2024-03-02T18:37:44.031Z,10.31
2024-03-02T18:41:10.128Z,10.26
2024-03-02T18:44:36.349Z,10.18
2024-03-02T18:48:03.788Z,10.14
2024-03-02T18:51:30.860Z,10.12
2024-03-02T18:54:59.680Z,10.09
2024-03-02T18:58:26.943Z,10.06
2024-03-02T19:01:53.487Z,10.03
2024-03-02T19:05:19.927Z,10.03
2024-03-02T19:08:46.174Z,10.04
2024-03-02T19:12:12.708Z,10.05
2024-03-02T19:15:38.766Z,10.08
2024-03-02T19:19:05.303Z,10.12
2024-03-02T19:22:34.442Z,10.15
2024-03-02T19:26:00.932Z,10.21
2024-03-02T19:29:30.123Z,10.27
2024-03-02T19:32:56.052Z,10.29
2024-03-02T19:36:22.522Z,10.30
2024-03-02T19:39:48.689Z,10.30
2024-03-02T19:43:19.024Z,10.26
2024-03-02T19:46:48.596Z,10.19
2024-03-02T19:50:15.719Z,10.10
2024-03-02T19:53:42.212Z,10.05
2024-03-02T19:57:08.473Z,10.02
2024-03-02T20:00:40.033Z,9.96
2024-03-02T20:04:06.737Z,9.90
2024-03-02T20:07:33.753Z,9.85
2024-03-02T20:10:59.757Z,9.81
2024-03-02T20:14:27.734Z,9.79
2024-03-02T20:17:56.090Z,9.79
2024-03-02T20:21:22.505Z,9.79
2024-03-02T20:24:49.390Z,9.83
2024-03-02T20:28:18.614Z,9.85
2024-03-02T20:31:51.542Z,9.86
2024-03-02T20:35:18.398Z,9.86
2024-03-02T20:38:44.405Z,9.87
2024-03-02T20:42:10.910Z,9.86
2024-03-02T20:45:39.892Z,9.85
2024-03-02T20:49:06.880Z,9.81
2024-03-02T20:52:33.447Z,9.76
2024-03-02T20:55:59.604Z,9.70
2024-03-02T20:59:28.435Z,9.62
2024-03-02T21:02:54.423Z,9.55
2024-03-02T21:06:21.021Z,9.47
2024-03-02T21:09:47.284Z,9.37
2024-03-02T21:13:13.915Z,9.32
2024-03-02T21:16:42.504Z,9.28
2024-03-02T21:20:10.998Z,9.25
2024-03-02T21:23:37.351Z,9.24
2024-03-02T21:27:04.314Z,9.24
2024-03-02T21:30:32.346Z,9.24
2024-03-02T21:33:58.760Z,9.26
2024-03-02T21:37:25.841Z,9.29
2024-03-02T21:40:52.620Z,9.33
2024-03-02T21:44:19.600Z,9.35
2024-03-02T21:47:46.677Z,9.39
2024-03-02T21:51:18.651Z,9.36
2024-03-02T21:54:45.319Z,9.37
2024-03-02T21:58:13.751Z,9.35
2024-03-02T22:01:40.598Z,9.30
2024-03-02T22:05:08.563Z,9.26
2024-03-02T22:08:34.703Z,9.21
2024-03-02T22:12:02.548Z,9.17
2024-03-02T22:15:29.111Z,9.13
2024-03-02T22:18:56.646Z,9.08
2024-03-02T22:22:22.843Z,9.05
2024-03-02T22:25:49.712Z,9.04
2024-03-02T22:29:15.873Z,9.03
2024-03-02T22:32:41.949Z,9.04
2024-03-02T22:36:10.281Z,9.07
2024-03-02T22:39:36.169Z,9.10
2024-03-02T22:43:03.221Z,9.12
2024-03-02T22:46:29.726Z,9.17
2024-03-02T22:49:57.281Z,9.21
2024-03-02T22:53:23.634Z,9.25
2024-03-02T22:56:50.179Z,9.26
2024-03-02T23:00:31.303Z,9.28
2024-03-02T23:03:57.870Z,9.29
2024-03-02T23:07:24.272Z,9.26
2024-03-02T23:10:50.531Z,9.23
2024-03-02T23:14:16.613Z,9.18
2024-03-02T23:17:43.258Z,9.10
2024-03-02T23:21:10.016Z,9.02
2024-03-02T23:24:35.814Z,8.94
2024-03-02T23:28:03.356Z,8.87
2024-03-02T23:31:30.347Z,8.83
2024-03-02T23:34:56.894Z,8.79
2024-03-02T23:38:22.932Z,8.78
2024-03-02T23:41:51.375Z,8.78
2024-03-02T23:45:17.857Z,8.78
2024-03-02T23:48:48.554Z,8.78
2024-03-02T23:52:16.700Z,8.81
2024-03-02T23:55:51.829Z,8.85
2024-03-02T23:59:19.800Z,8.89
